sensor_id;sensor_type;location;lat;lon;timestamp;temperature;humidity
32394;DHT22;18853;45.426;9.206;2022-08-19T00:01:24;27.00;53.70
32394;DHT22;18853;45.426;9.206;2022-08-19T00:03:50;27.00;53.80
32394;DHT22;18853;45.426;9.206;2022-08-19T00:06:16;27.00;53.70
32394;DHT22;18853;45.426;9.206;2022-08-19T00:08:41;27.00;53.80
32394;DHT22;18853;45.426;9.206;2022-08-19T00:11:08;27.00;53.90
32394;DHT22;18853;45.426;9.206;2022-08-19T00:13:34;27.00;53.80
32394;DHT22;18853;45.426;9.206;2022-08-19T00:16:00;27.00;53.80
32394;DHT22;18853;45.426;9.206;2022-08-19T00:18:25;27.00;53.70
32394;DHT22;18853;45.426;9.206;2022-08-19T00:20:51;27.10;53.70
32394;DHT22;18853;45.426;9.206;2022-08-19T00:23:17;27.00;53.60
32394;DHT22;18853;45.426;9.206;2022-08-19T00:25:42;27.10;53.60
32394;DHT22;18853;45.426;9.206;2022-08-19T00:28:08;27.10;53.70
32394;DHT22;18853;45.426;9.206;2022-08-19T00:30:33;27.10;54.10
32394;DHT22;18853;45.426;9.206;2022-08-19T00:32:59;27.10;54.20
32394;DHT22;18853;45.426;9.206;2022-08-19T00:35:24;27.00;54.00
32394;DHT22;18853;45.426;9.206;2022-08-19T00:37:52;27.10;54.10
32394;DHT22;18853;45.426;9.206;2022-08-19T00:40:18;27.00;54.20
32394;DHT22;18853;45.426;9.206;2022-08-19T00:42:44;27.00;54.40
32394;DHT22;18853;45.426;9.206;2022-08-19T00:45:14;27.00;54.50
32394;DHT22;18853;45.426;9.206;2022-08-19T00:47:42;27.00;54.70
32394;DHT22;18853;45.426;9.206;2022-08-19T00:50:08;27.00;54.80
32394;DHT22;18853;45.426;9.206;2022-08-19T00:52:36;27.00;54.90
32394;DHT22;18853;45.426;9.206;2022-08-19T00:55:04;27.00;55.00
32394;DHT22;18853;45.426;9.206;2022-08-19T00:57:34;26.90;55.00
32394;DHT22;18853;45.426;9.206;2022-08-19T01:00:00;26.90;55.20
32394;DHT22;18853;45.426;9.206;2022-08-19T01:02:27;26.90;55.10
32394;DHT22;18853;45.426;9.206;2022-08-19T01:04:53;26.90;55.20
32394;DHT22;18853;45.426;9.206;2022-08-19T01:07:19;26.90;55.10
32394;DHT22;18853;45.426;9.206;2022-08-19T01:09:44;26.90;55.40
32394;DHT22;18853;45.426;9.206;2022-08-19T01:12:10;26.90;55.50
32394;DHT22;18853;45.426;9.206;2022-08-19T01:14:36;26.90;55.70
32394;DHT22;18853;45.426;9.206;2022-08-19T01:17:02;26.90;55.60
32394;DHT22;18853;45.426;9.206;2022-08-19T01:19:32;26.90;55.70
32394;DHT22;18853;45.426;9.206;2022-08-19T01:22:02;26.80;55.70
32394;DHT22;18853;45.426;9.206;2022-08-19T01:24:28;26.80;55.60
32394;DHT22;18853;45.426;9.206;2022-08-19T01:26:55;26.80;55.30
32394;DHT22;18853;45.426;9.206;2022-08-19T01:29:21;26.80;55.90
32394;DHT22;18853;45.426;9.206;2022-08-19T01:31:47;26.80;55.60
32394;DHT22;18853;45.426;9.206;2022-08-19T01:34:13;26.80;55.80
32394;DHT22;18853;45.426;9.206;2022-08-19T01:36:40;26.80;55.70
32394;DHT22;18853;45.426;9.206;2022-08-19T01:39:08;26.80;55.70
32394;DHT22;18853;45.426;9.206;2022-08-19T01:41:35;26.80;55.70
32394;DHT22;18853;45.426;9.206;2022-08-19T01:44:00;26.80;55.80
32394;DHT22;18853;45.426;9.206;2022-08-19T01:46:28;26.70;55.70
32394;DHT22;18853;45.426;9.206;2022-08-19T01:48:54;26.70;55.80
32394;DHT22;18853;45.426;9.206;2022-08-19T01:51:20;26.80;55.70
32394;DHT22;18853;45.426;9.206;2022-08-19T01:53:48;26.70;55.70
32394;DHT22;18853;45.426;9.206;2022-08-19T01:56:14;26.60;55.90
32394;DHT22;18853;45.426;9.206;2022-08-19T01:58:41;26.60;56.00
32394;DHT22;18853;45.426;9.206;2022-08-19T02:01:08;26.50;56.10
32394;DHT22;18853;45.426;9.206;2022-08-19T02:03:34;26.50;56.20
32394;DHT22;18853;45.426;9.206;2022-08-19T02:06:02;26.40;56.00
32394;DHT22;18853;45.426;9.206;2022-08-19T02:08:28;26.50;55.70
32394;DHT22;18853;45.426;9.206;2022-08-19T02:10:54;26.50;55.60
32394;DHT22;18853;45.426;9.206;2022-08-19T02:13:20;26.60;55.60
32394;DHT22;18853;45.426;9.206;2022-08-19T02:15:45;26.50;56.30
32394;DHT22;18853;45.426;9.206;2022-08-19T02:18:12;26.50;55.60
32394;DHT22;18853;45.426;9.206;2022-08-19T02:20:38;26.50;55.70
32394;DHT22;18853;45.426;9.206;2022-08-19T02:23:04;26.50;56.00
32394;DHT22;18853;45.426;9.206;2022-08-19T02:25:29;26.40;56.30
32394;DHT22;18853;45.426;9.206;2022-08-19T02:27:55;26.40;56.60
32394;DHT22;18853;45.426;9.206;2022-08-19T02:30:21;26.40;56.50
32394;DHT22;18853;45.426;9.206;2022-08-19T02:32:46;26.40;56.50
32394;DHT22;18853;45.426;9.206;2022-08-19T02:35:12;26.30;56.30
32394;DHT22;18853;45.426;9.206;2022-08-19T02:37:38;26.30;56.30
32394;DHT22;18853;45.426;9.206;2022-08-19T02:40:22;26.40;56.30
32394;DHT22;18853;45.426;9.206;2022-08-19T02:42:48;26.30;56.40
32394;DHT22;18853;45.426;9.206;2022-08-19T02:45:14;26.30;56.30
32394;DHT22;18853;45.426;9.206;2022-08-19T02:47:39;26.30;56.20
32394;DHT22;18853;45.426;9.206;2022-08-19T02:50:05;26.30;56.30
32394;DHT22;18853;45.426;9.206;2022-08-19T02:52:31;26.30;56.20
32394;DHT22;18853;45.426;9.206;2022-08-19T02:54:57;26.30;56.20
32394;DHT22;18853;45.426;9.206;2022-08-19T02:57:23;26.30;56.10
32394;DHT22;18853;45.426;9.206;2022-08-19T02:59:48;26.30;56.10
32394;DHT22;18853;45.426;9.206;2022-08-19T03:02:15;26.30;56.10
32394;DHT22;18853;45.426;9.206;2022-08-19T03:04:40;26.20;56.30
32394;DHT22;18853;45.426;9.206;2022-08-19T03:07:07;26.10;56.30
32394;DHT22;18853;45.426;9.206;2022-08-19T03:09:33;26.10;56.20
32394;DHT22;18853;45.426;9.206;2022-08-19T03:12:02;26.10;56.20
32394;DHT22;18853;45.426;9.206;2022-08-19T03:14:29;26.20;56.30
32394;DHT22;18853;45.426;9.206;2022-08-19T03:16:55;26.10;56.00
32394;DHT22;18853;45.426;9.206;2022-08-19T03:19:20;26.10;56.10
32394;DHT22;18853;45.426;9.206;2022-08-19T03:21:49;26.10;56.10
32394;DHT22;18853;45.426;9.206;2022-08-19T03:24:15;26.10;56.50
32394;DHT22;18853;45.426;9.206;2022-08-19T03:26:43;26.10;55.90
32394;DHT22;18853;45.426;9.206;2022-08-19T03:29:08;26.10;55.80
32394;DHT22;18853;45.426;9.206;2022-08-19T03:31:36;26.10;56.00
32394;DHT22;18853;45.426;9.206;2022-08-19T03:34:02;26.10;56.00
32394;DHT22;18853;45.426;9.206;2022-08-19T03:36:27;26.10;55.90
32394;DHT22;18853;45.426;9.206;2022-08-19T03:38:57;26.10;55.80
32394;DHT22;18853;45.426;9.206;2022-08-19T03:41:24;26.10;55.70
32394;DHT22;18853;45.426;9.206;2022-08-19T03:43:51;26.10;55.70
32394;DHT22;18853;45.426;9.206;2022-08-19T03:46:18;26.10;55.80
32394;DHT22;18853;45.426;9.206;2022-08-19T03:48:48;26.10;56.10
32394;DHT22;18853;45.426;9.206;2022-08-19T03:51:15;26.10;56.20
32394;DHT22;18853;45.426;9.206;2022-08-19T03:53:41;26.10;56.10
32394;DHT22;18853;45.426;9.206;2022-08-19T03:56:08;26.10;56.00
32394;DHT22;18853;45.426;9.206;2022-08-19T03:58:34;26.10;55.80
32394;DHT22;18853;45.426;9.206;2022-08-19T04:00:59;26.10;55.80
32394;DHT22;18853;45.426;9.206;2022-08-19T04:03:25;26.10;55.80
32394;DHT22;18853;45.426;9.206;2022-08-19T04:05:52;26.10;56.10
32394;DHT22;18853;45.426;9.206;2022-08-19T04:08:18;26.10;56.10
32394;DHT22;18853;45.426;9.206;2022-08-19T04:10:46;26.10;56.40
32394;DHT22;18853;45.426;9.206;2022-08-19T04:13:11;26.00;57.40
32394;DHT22;18853;45.426;9.206;2022-08-19T04:15:40;26.00;57.90
32394;DHT22;18853;45.426;9.206;2022-08-19T04:18:07;25.80;58.10
32394;DHT22;18853;45.426;9.206;2022-08-19T04:20:37;25.80;58.10
32394;DHT22;18853;45.426;9.206;2022-08-19T04:23:03;25.80;58.50
32394;DHT22;18853;45.426;9.206;2022-08-19T04:25:28;25.80;58.90
32394;DHT22;18853;45.426;9.206;2022-08-19T04:27:59;25.80;59.50
32394;DHT22;18853;45.426;9.206;2022-08-19T04:30:24;25.70;59.90
32394;DHT22;18853;45.426;9.206;2022-08-19T04:32:50;25.60;60.10
32394;DHT22;18853;45.426;9.206;2022-08-19T04:35:15;25.60;59.70
32394;DHT22;18853;45.426;9.206;2022-08-19T04:37:41;25.60;59.50
32394;DHT22;18853;45.426;9.206;2022-08-19T04:40:07;25.60;59.20
32394;DHT22;18853;45.426;9.206;2022-08-19T04:42:51;25.60;58.90
32394;DHT22;18853;45.426;9.206;2022-08-19T04:45:17;25.70;58.90
32394;DHT22;18853;45.426;9.206;2022-08-19T04:47:43;25.60;59.40
32394;DHT22;18853;45.426;9.206;2022-08-19T04:50:09;25.60;59.50
32394;DHT22;18853;45.426;9.206;2022-08-19T04:52:37;25.60;59.50
32394;DHT22;18853;45.426;9.206;2022-08-19T04:55:03;25.50;60.40
32394;DHT22;18853;45.426;9.206;2022-08-19T04:57:31;25.50;61.10
32394;DHT22;18853;45.426;9.206;2022-08-19T04:59:56;25.50;61.60
32394;DHT22;18853;45.426;9.206;2022-08-19T05:02:22;25.50;61.50
32394;DHT22;18853;45.426;9.206;2022-08-19T05:04:57;25.50;61.30
32394;DHT22;18853;45.426;9.206;2022-08-19T05:07:22;25.50;61.30
32394;DHT22;18853;45.426;9.206;2022-08-19T05:09:48;25.40;61.40
32394;DHT22;18853;45.426;9.206;2022-08-19T05:12:13;25.30;61.50
32394;DHT22;18853;45.426;9.206;2022-08-19T05:14:39;25.40;61.30
32394;DHT22;18853;45.426;9.206;2022-08-19T05:17:04;25.30;62.50
32394;DHT22;18853;45.426;9.206;2022-08-19T05:19:30;25.30;62.50
32394;DHT22;18853;45.426;9.206;2022-08-19T05:22:14;25.30;62.60
32394;DHT22;18853;45.426;9.206;2022-08-19T05:25:07;25.30;62.30
32394;DHT22;18853;45.426;9.206;2022-08-19T05:27:34;25.30;61.70
32394;DHT22;18853;45.426;9.206;2022-08-19T05:30:00;25.30;61.40
32394;DHT22;18853;45.426;9.206;2022-08-19T05:32:27;25.20;61.70
32394;DHT22;18853;45.426;9.206;2022-08-19T05:34:52;25.30;62.50
32394;DHT22;18853;45.426;9.206;2022-08-19T05:37:18;25.20;62.60
32394;DHT22;18853;45.426;9.206;2022-08-19T05:39:43;25.20;62.80
32394;DHT22;18853;45.426;9.206;2022-08-19T05:42:09;25.20;62.80
32394;DHT22;18853;45.426;9.206;2022-08-19T05:44:37;25.20;62.30
32394;DHT22;18853;45.426;9.206;2022-08-19T05:47:04;25.20;62.80
32394;DHT22;18853;45.426;9.206;2022-08-19T05:49:31;25.20;62.00
32394;DHT22;18853;45.426;9.206;2022-08-19T05:51:57;25.20;62.30
32394;DHT22;18853;45.426;9.206;2022-08-19T05:54:24;25.30;62.50
32394;DHT22;18853;45.426;9.206;2022-08-19T05:56:51;25.30;62.20
32394;DHT22;18853;45.426;9.206;2022-08-19T05:59:17;25.20;62.10
32394;DHT22;18853;45.426;9.206;2022-08-19T06:01:46;25.20;62.30
32394;DHT22;18853;45.426;9.206;2022-08-19T06:04:15;25.20;62.80
32394;DHT22;18853;45.426;9.206;2022-08-19T06:06:43;25.20;63.20
32394;DHT22;18853;45.426;9.206;2022-08-19T06:09:08;25.10;62.80
32394;DHT22;18853;45.426;9.206;2022-08-19T06:11:37;25.20;62.40
32394;DHT22;18853;45.426;9.206;2022-08-19T06:14:07;25.20;62.70
32394;DHT22;18853;45.426;9.206;2022-08-19T06:16:36;25.20;62.80
32394;DHT22;18853;45.426;9.206;2022-08-19T06:19:04;25.30;62.80
32394;DHT22;18853;45.426;9.206;2022-08-19T06:21:32;25.30;62.60
32394;DHT22;18853;45.426;9.206;2022-08-19T06:23:58;25.20;62.50
32394;DHT22;18853;45.426;9.206;2022-08-19T06:26:24;25.20;62.20
32394;DHT22;18853;45.426;9.206;2022-08-19T06:28:50;25.30;62.30
32394;DHT22;18853;45.426;9.206;2022-08-19T06:31:20;25.20;62.00
32394;DHT22;18853;45.426;9.206;2022-08-19T06:33:46;25.20;62.00
32394;DHT22;18853;45.426;9.206;2022-08-19T06:36:23;25.20;62.40
32394;DHT22;18853;45.426;9.206;2022-08-19T06:38:53;25.30;62.30
32394;DHT22;18853;45.426;9.206;2022-08-19T06:41:18;25.30;62.70
32394;DHT22;18853;45.426;9.206;2022-08-19T06:43:44;25.20;63.00
32394;DHT22;18853;45.426;9.206;2022-08-19T06:46:11;25.10;63.10
32394;DHT22;18853;45.426;9.206;2022-08-19T06:48:37;25.20;63.00
32394;DHT22;18853;45.426;9.206;2022-08-19T06:51:02;25.20;62.60
32394;DHT22;18853;45.426;9.206;2022-08-19T06:53:29;25.30;62.60
32394;DHT22;18853;45.426;9.206;2022-08-19T06:55:54;25.20;62.80
32394;DHT22;18853;45.426;9.206;2022-08-19T06:58:25;25.20;62.50
32394;DHT22;18853;45.426;9.206;2022-08-19T07:00:50;25.20;62.70
32394;DHT22;18853;45.426;9.206;2022-08-19T07:03:16;25.20;62.10
32394;DHT22;18853;45.426;9.206;2022-08-19T07:05:42;25.20;62.50
32394;DHT22;18853;45.426;9.206;2022-08-19T07:08:08;25.20;62.80
32394;DHT22;18853;45.426;9.206;2022-08-19T07:10:34;25.20;61.90
32394;DHT22;18853;45.426;9.206;2022-08-19T07:13:02;25.30;62.00
32394;DHT22;18853;45.426;9.206;2022-08-19T07:15:27;25.30;62.00
32394;DHT22;18853;45.426;9.206;2022-08-19T07:17:53;25.30;61.60
32394;DHT22;18853;45.426;9.206;2022-08-19T07:20:18;25.30;61.20
32394;DHT22;18853;45.426;9.206;2022-08-19T07:22:44;25.40;61.80
32394;DHT22;18853;45.426;9.206;2022-08-19T07:25:10;25.50;61.60
32394;DHT22;18853;45.426;9.206;2022-08-19T07:27:38;25.60;62.50
32394;DHT22;18853;45.426;9.206;2022-08-19T07:30:04;25.50;63.30
32394;DHT22;18853;45.426;9.206;2022-08-19T07:32:30;25.50;63.20
32394;DHT22;18853;45.426;9.206;2022-08-19T07:34:56;25.50;63.30
32394;DHT22;18853;45.426;9.206;2022-08-19T07:37:21;25.60;63.60
32394;DHT22;18853;45.426;9.206;2022-08-19T07:39:47;25.60;63.20
32394;DHT22;18853;45.426;9.206;2022-08-19T07:42:12;25.60;62.60
32394;DHT22;18853;45.426;9.206;2022-08-19T07:44:39;25.50;62.00
32394;DHT22;18853;45.426;9.206;2022-08-19T07:47:05;25.50;62.30
32394;DHT22;18853;45.426;9.206;2022-08-19T07:49:32;25.50;62.90
32394;DHT22;18853;45.426;9.206;2022-08-19T07:51:59;25.60;63.30
32394;DHT22;18853;45.426;9.206;2022-08-19T07:54:27;25.70;62.40
32394;DHT22;18853;45.426;9.206;2022-08-19T07:56:52;25.70;62.50
32394;DHT22;18853;45.426;9.206;2022-08-19T07:59:18;25.80;62.70
32394;DHT22;18853;45.426;9.206;2022-08-19T08:01:44;25.80;61.80
32394;DHT22;18853;45.426;9.206;2022-08-19T08:04:10;25.80;61.80
32394;DHT22;18853;45.426;9.206;2022-08-19T08:06:54;25.90;61.80
32394;DHT22;18853;45.426;9.206;2022-08-19T08:09:39;25.90;62.30
32394;DHT22;18853;45.426;9.206;2022-08-19T08:12:07;25.90;62.90
32394;DHT22;18853;45.426;9.206;2022-08-19T08:14:37;25.90;63.20
32394;DHT22;18853;45.426;9.206;2022-08-19T08:17:04;26.00;62.60
32394;DHT22;18853;45.426;9.206;2022-08-19T08:19:30;26.00;62.20
32394;DHT22;18853;45.426;9.206;2022-08-19T08:21:56;26.10;61.80
32394;DHT22;18853;45.426;9.206;2022-08-19T08:24:22;26.10;61.60
32394;DHT22;18853;45.426;9.206;2022-08-19T08:26:48;26.20;61.20
32394;DHT22;18853;45.426;9.206;2022-08-19T08:29:14;26.20;61.30
32394;DHT22;18853;45.426;9.206;2022-08-19T08:31:40;26.30;61.30
32394;DHT22;18853;45.426;9.206;2022-08-19T08:34:07;26.30;60.00
32394;DHT22;18853;45.426;9.206;2022-08-19T08:36:32;26.30;59.90
32394;DHT22;18853;45.426;9.206;2022-08-19T08:38:59;26.30;60.60
32394;DHT22;18853;45.426;9.206;2022-08-19T08:41:32;26.30;61.50
32394;DHT22;18853;45.426;9.206;2022-08-19T08:43:59;26.30;61.90
32394;DHT22;18853;45.426;9.206;2022-08-19T08:46:39;26.30;60.70
32394;DHT22;18853;45.426;9.206;2022-08-19T08:52:13;26.30;61.50
32394;DHT22;18853;45.426;9.206;2022-08-19T08:54:40;26.30;61.60
32394;DHT22;18853;45.426;9.206;2022-08-19T08:57:13;26.30;61.80
32394;DHT22;18853;45.426;9.206;2022-08-19T08:59:40;26.30;60.80
32394;DHT22;18853;45.426;9.206;2022-08-19T09:02:07;26.30;59.60
32394;DHT22;18853;45.426;9.206;2022-08-19T09:04:34;26.40;59.80
32394;DHT22;18853;45.426;9.206;2022-08-19T09:09:35;26.40;59.60
32394;DHT22;18853;45.426;9.206;2022-08-19T09:14:43;26.50;58.30
32394;DHT22;18853;45.426;9.206;2022-08-19T09:17:11;26.50;58.00
32394;DHT22;18853;45.426;9.206;2022-08-19T09:20:37;26.50;57.50
32394;DHT22;18853;45.426;9.206;2022-08-19T09:22:34;26.50;57.90
32394;DHT22;18853;45.426;9.206;2022-08-19T09:25:00;26.60;57.40
32394;DHT22;18853;45.426;9.206;2022-08-19T09:27:26;26.60;57.10
32394;DHT22;18853;45.426;9.206;2022-08-19T09:29:52;26.60;57.30
32394;DHT22;18853;45.426;9.206;2022-08-19T09:32:19;26.60;57.60
32394;DHT22;18853;45.426;9.206;2022-08-19T09:34:44;26.60;57.70
32394;DHT22;18853;45.426;9.206;2022-08-19T09:37:10;26.60;57.30
32394;DHT22;18853;45.426;9.206;2022-08-19T09:39:37;26.60;57.40
32394;DHT22;18853;45.426;9.206;2022-08-19T09:42:02;26.70;57.30
32394;DHT22;18853;45.426;9.206;2022-08-19T09:44:28;26.70;56.60
32394;DHT22;18853;45.426;9.206;2022-08-19T09:46:54;26.80;56.60
32394;DHT22;18853;45.426;9.206;2022-08-19T09:49:20;26.80;56.40
32394;DHT22;18853;45.426;9.206;2022-08-19T09:51:53;26.90;56.10
32394;DHT22;18853;45.426;9.206;2022-08-19T09:54:21;27.00;56.40
32394;DHT22;18853;45.426;9.206;2022-08-19T09:56:46;27.10;56.00
32394;DHT22;18853;45.426;9.206;2022-08-19T09:59:12;27.10;56.40
32394;DHT22;18853;45.426;9.206;2022-08-19T10:01:37;27.00;56.30
32394;DHT22;18853;45.426;9.206;2022-08-19T10:04:03;27.00;56.10
32394;DHT22;18853;45.426;9.206;2022-08-19T10:06:34;27.00;55.40
32394;DHT22;18853;45.426;9.206;2022-08-19T10:08:59;27.10;55.20
32394;DHT22;18853;45.426;9.206;2022-08-19T10:11:25;27.10;55.50
32394;DHT22;18853;45.426;9.206;2022-08-19T10:13:51;27.10;54.80
32394;DHT22;18853;45.426;9.206;2022-08-19T10:16:18;27.20;54.70
32394;DHT22;18853;45.426;9.206;2022-08-19T10:18:45;27.20;54.80
32394;DHT22;18853;45.426;9.206;2022-08-19T10:21:32;27.10;53.70
32394;DHT22;18853;45.426;9.206;2022-08-19T10:23:57;27.00;53.30
32394;DHT22;18853;45.426;9.206;2022-08-19T10:26:25;27.10;53.40
32394;DHT22;18853;45.426;9.206;2022-08-19T10:28:51;27.10;52.60
32394;DHT22;18853;45.426;9.206;2022-08-19T10:31:18;27.10;53.20
32394;DHT22;18853;45.426;9.206;2022-08-19T10:33:45;27.10;51.30
32394;DHT22;18853;45.426;9.206;2022-08-19T10:36:13;27.10;51.20
32394;DHT22;18853;45.426;9.206;2022-08-19T10:38:46;27.20;52.00
32394;DHT22;18853;45.426;9.206;2022-08-19T10:41:16;27.30;51.70
32394;DHT22;18853;45.426;9.206;2022-08-19T10:43:42;27.40;51.60
32394;DHT22;18853;45.426;9.206;2022-08-19T10:46:08;27.40;50.00
32394;DHT22;18853;45.426;9.206;2022-08-19T10:48:34;27.50;50.70
32394;DHT22;18853;45.426;9.206;2022-08-19T10:51:00;27.50;50.10
32394;DHT22;18853;45.426;9.206;2022-08-19T10:53:45;27.50;50.10
32394;DHT22;18853;45.426;9.206;2022-08-19T10:56:10;27.60;50.40
32394;DHT22;18853;45.426;9.206;2022-08-19T10:58:54;27.60;50.60
32394;DHT22;18853;45.426;9.206;2022-08-19T11:01:21;27.60;51.20
32394;DHT22;18853;45.426;9.206;2022-08-19T11:03:47;27.70;50.90
32394;DHT22;18853;45.426;9.206;2022-08-19T11:06:12;27.70;50.60
32394;DHT22;18853;45.426;9.206;2022-08-19T11:08:38;27.80;49.90
32394;DHT22;18853;45.426;9.206;2022-08-19T11:11:05;27.80;49.90
32394;DHT22;18853;45.426;9.206;2022-08-19T11:13:31;27.90;50.30
32394;DHT22;18853;45.426;9.206;2022-08-19T11:16:03;28.00;50.60
32394;DHT22;18853;45.426;9.206;2022-08-19T11:18:29;28.00;50.20
32394;DHT22;18853;45.426;9.206;2022-08-19T11:20:54;27.90;50.40
32394;DHT22;18853;45.426;9.206;2022-08-19T11:23:20;27.80;49.70
32394;DHT22;18853;45.426;9.206;2022-08-19T11:25:45;27.80;49.90
32394;DHT22;18853;45.426;9.206;2022-08-19T11:28:11;27.90;50.10
32394;DHT22;18853;45.426;9.206;2022-08-19T11:30:37;27.90;50.30
32394;DHT22;18853;45.426;9.206;2022-08-19T11:33:03;28.00;50.20
32394;DHT22;18853;45.426;9.206;2022-08-19T11:35:28;28.00;49.70
32394;DHT22;18853;45.426;9.206;2022-08-19T11:37:54;28.10;49.40
32394;DHT22;18853;45.426;9.206;2022-08-19T11:40:21;28.10;49.50
32394;DHT22;18853;45.426;9.206;2022-08-19T11:42:46;28.00;49.10
32394;DHT22;18853;45.426;9.206;2022-08-19T11:45:21;28.00;49.30
32394;DHT22;18853;45.426;9.206;2022-08-19T11:47:47;28.00;49.20
32394;DHT22;18853;45.426;9.206;2022-08-19T11:50:14;28.00;48.70
32394;DHT22;18853;45.426;9.206;2022-08-19T11:52:40;28.10;48.60
32394;DHT22;18853;45.426;9.206;2022-08-19T11:55:06;28.10;48.50
32394;DHT22;18853;45.426;9.206;2022-08-19T11:57:32;28.20;49.00
32394;DHT22;18853;45.426;9.206;2022-08-19T11:59:57;28.10;49.30
32394;DHT22;18853;45.426;9.206;2022-08-19T12:02:23;28.20;49.20
32394;DHT22;18853;45.426;9.206;2022-08-19T12:04:49;28.10;49.00
32394;DHT22;18853;45.426;9.206;2022-08-19T12:07:14;28.20;49.50
32394;DHT22;18853;45.426;9.206;2022-08-19T12:09:40;28.20;49.30
32394;DHT22;18853;45.426;9.206;2022-08-19T12:12:06;28.30;50.00
32394;DHT22;18853;45.426;9.206;2022-08-19T12:14:31;28.30;50.20
32394;DHT22;18853;45.426;9.206;2022-08-19T12:16:57;28.30;50.10
32394;DHT22;18853;45.426;9.206;2022-08-19T12:19:22;28.30;50.00
32394;DHT22;18853;45.426;9.206;2022-08-19T12:21:50;28.30;49.70
32394;DHT22;18853;45.426;9.206;2022-08-19T12:24:15;28.30;49.80
32394;DHT22;18853;45.426;9.206;2022-08-19T12:26:45;28.30;49.30
32394;DHT22;18853;45.426;9.206;2022-08-19T12:29:11;28.20;49.50
32394;DHT22;18853;45.426;9.206;2022-08-19T12:31:36;28.20;49.50
32394;DHT22;18853;45.426;9.206;2022-08-19T12:34:02;28.30;49.30
32394;DHT22;18853;45.426;9.206;2022-08-19T12:36:27;28.40;49.30
32394;DHT22;18853;45.426;9.206;2022-08-19T12:38:53;28.50;48.30
32394;DHT22;18853;45.426;9.206;2022-08-19T12:41:19;28.60;48.40
32394;DHT22;18853;45.426;9.206;2022-08-19T12:43:47;28.80;47.90
32394;DHT22;18853;45.426;9.206;2022-08-19T12:46:14;28.80;46.60
32394;DHT22;18853;45.426;9.206;2022-08-19T12:48:40;28.90;46.50
32394;DHT22;18853;45.426;9.206;2022-08-19T12:51:08;29.00;47.00
32394;DHT22;18853;45.426;9.206;2022-08-19T12:53:35;29.00;45.90
32394;DHT22;18853;45.426;9.206;2022-08-19T12:56:00;29.10;46.20
32394;DHT22;18853;45.426;9.206;2022-08-19T12:58:26;29.20;46.00
32394;DHT22;18853;45.426;9.206;2022-08-19T13:00:52;29.30;46.10
32394;DHT22;18853;45.426;9.206;2022-08-19T13:03:17;29.30;46.00
32394;DHT22;18853;45.426;9.206;2022-08-19T13:05:43;29.30;45.90
32394;DHT22;18853;45.426;9.206;2022-08-19T13:08:08;29.20;46.00
32394;DHT22;18853;45.426;9.206;2022-08-19T13:10:35;29.20;46.00
32394;DHT22;18853;45.426;9.206;2022-08-19T13:13:02;29.30;46.90
32394;DHT22;18853;45.426;9.206;2022-08-19T13:15:28;29.50;46.60
32394;DHT22;18853;45.426;9.206;2022-08-19T13:17:57;29.60;45.70
32394;DHT22;18853;45.426;9.206;2022-08-19T13:20:22;29.60;46.80
32394;DHT22;18853;45.426;9.206;2022-08-19T13:22:48;29.70;46.10
32394;DHT22;18853;45.426;9.206;2022-08-19T13:25:14;29.80;45.90
32394;DHT22;18853;45.426;9.206;2022-08-19T13:27:41;29.90;46.00
32394;DHT22;18853;45.426;9.206;2022-08-19T13:30:08;30.00;45.90
32394;DHT22;18853;45.426;9.206;2022-08-19T13:32:52;30.10;45.90
32394;DHT22;18853;45.426;9.206;2022-08-19T13:38:14;30.10;45.70
32394;DHT22;18853;45.426;9.206;2022-08-19T13:40:41;30.20;45.10
32394;DHT22;18853;45.426;9.206;2022-08-19T13:43:07;30.20;45.40
32394;DHT22;18853;45.426;9.206;2022-08-19T13:45:34;30.20;45.40
32394;DHT22;18853;45.426;9.206;2022-08-19T13:48:01;30.20;45.40
32394;DHT22;18853;45.426;9.206;2022-08-19T13:50:29;30.20;44.90
32394;DHT22;18853;45.426;9.206;2022-08-19T13:52:56;30.10;45.20
32394;DHT22;18853;45.426;9.206;2022-08-19T13:55:22;30.10;45.90
32394;DHT22;18853;45.426;9.206;2022-08-19T13:57:51;30.20;46.00
32394;DHT22;18853;45.426;9.206;2022-08-19T14:00:18;30.20;45.90
32394;DHT22;18853;45.426;9.206;2022-08-19T14:02:45;30.20;46.10
32394;DHT22;18853;45.426;9.206;2022-08-19T14:05:11;30.30;45.50
32394;DHT22;18853;45.426;9.206;2022-08-19T14:07:37;30.50;44.80
32394;DHT22;18853;45.426;9.206;2022-08-19T14:10:04;30.80;44.60
32394;DHT22;18853;45.426;9.206;2022-08-19T14:12:30;31.00;44.40
32394;DHT22;18853;45.426;9.206;2022-08-19T14:14:57;31.10;44.70
32394;DHT22;18853;45.426;9.206;2022-08-19T14:17:23;31.20;43.80
32394;DHT22;18853;45.426;9.206;2022-08-19T14:19:55;31.30;43.80
32394;DHT22;18853;45.426;9.206;2022-08-19T14:22:21;31.40;43.60
32394;DHT22;18853;45.426;9.206;2022-08-19T14:24:46;31.40;43.20
32394;DHT22;18853;45.426;9.206;2022-08-19T14:27:13;31.60;43.40
32394;DHT22;18853;45.426;9.206;2022-08-19T14:29:39;31.70;43.10
32394;DHT22;18853;45.426;9.206;2022-08-19T14:32:05;31.70;43.50
32394;DHT22;18853;45.426;9.206;2022-08-19T14:34:30;31.80;43.40
32394;DHT22;18853;45.426;9.206;2022-08-19T14:36:57;31.80;43.70
32394;DHT22;18853;45.426;9.206;2022-08-19T14:39:22;31.80;44.30
32394;DHT22;18853;45.426;9.206;2022-08-19T14:41:48;31.70;43.60
32394;DHT22;18853;45.426;9.206;2022-08-19T14:44:14;31.60;43.10
32394;DHT22;18853;45.426;9.206;2022-08-19T14:46:39;31.70;43.30
32394;DHT22;18853;45.426;9.206;2022-08-19T14:49:05;31.70;43.50
32394;DHT22;18853;45.426;9.206;2022-08-19T14:51:31;31.60;42.80
32394;DHT22;18853;45.426;9.206;2022-08-19T14:53:57;31.60;43.00
32394;DHT22;18853;45.426;9.206;2022-08-19T14:56:24;31.50;42.80
32394;DHT22;18853;45.426;9.206;2022-08-19T14:58:50;31.50;41.30
32394;DHT22;18853;45.426;9.206;2022-08-19T15:01:16;31.40;40.30
32394;DHT22;18853;45.426;9.206;2022-08-19T15:03:42;31.50;39.00
32394;DHT22;18853;45.426;9.206;2022-08-19T15:06:07;31.40;37.50
32394;DHT22;18853;45.426;9.206;2022-08-19T15:08:34;31.40;37.70
32394;DHT22;18853;45.426;9.206;2022-08-19T15:11:01;31.30;37.50
32394;DHT22;18853;45.426;9.206;2022-08-19T15:13:27;31.20;36.40
32394;DHT22;18853;45.426;9.206;2022-08-19T15:15:53;31.10;36.90
32394;DHT22;18853;45.426;9.206;2022-08-19T15:18:19;31.10;37.30
32394;DHT22;18853;45.426;9.206;2022-08-19T15:20:46;31.00;35.70
32394;DHT22;18853;45.426;9.206;2022-08-19T15:23:12;31.00;35.00
32394;DHT22;18853;45.426;9.206;2022-08-19T15:25:38;30.90;35.80
32394;DHT22;18853;45.426;9.206;2022-08-19T15:28:03;30.90;35.50
32394;DHT22;18853;45.426;9.206;2022-08-19T15:30:29;30.90;36.30
32394;DHT22;18853;45.426;9.206;2022-08-19T15:32:58;30.90;36.10
32394;DHT22;18853;45.426;9.206;2022-08-19T15:35:24;30.80;36.10
32394;DHT22;18853;45.426;9.206;2022-08-19T15:37:50;30.80;36.60
32394;DHT22;18853;45.426;9.206;2022-08-19T15:40:15;30.80;36.70